Time;durP1;ratioP1;P1;durP2;ratioP2;P2;SDS_P1;SDS_P2;PMS_P1;PMS_P2;Temp;Humidity;BMP_temperature;BMP_pressure;BME280_temperature;BME280_humidity;BME280_pressure;Samples;Min_cycle;Max_cycle;Signal;HPM_P1;HPM_P2
2021/11/27 00:02:22;;;;;;;8.77;7.37;;;;;;;;;;5058419;28;20225;-61
2021/11/27 00:04:47;;;;;;;9.77;7.10;;;;;;;;;;5058153;28;20220;-61
2021/11/27 00:07:13;;;;;;;8.30;7.40;;;;;;;;;;5058354;28;20322;-60
2021/11/27 00:09:38;;;;;;;9.93;8.60;;;;;;;;;;5057442;28;20223;-61
2021/11/27 00:12:04;;;;;;;7.80;6.90;;;;;;;;;;5057588;28;20556;-61
2021/11/27 00:14:30;;;;;;;10.23;7.87;;;;;;;;;;5058187;28;20217;-61
2021/11/27 00:16:56;;;;;;;9.70;8.23;;;;;;;;;;5057900;28;20216;-61
2021/11/27 00:19:21;;;;;;;13.63;8.90;;;;;;;;;;5057832;28;20463;-61
2021/11/27 00:21:47;;;;;;;10.83;8.30;;;;;;;;;;5057758;28;20308;-62
2021/11/27 00:24:13;;;;;;;11.10;8.57;;;;;;;;;;5058201;28;20255;-61
2021/11/27 00:26:38;;;;;;;9.67;8.10;;;;;;;;;;5058181;28;20225;-61
2021/11/27 00:29:04;;;;;;;11.57;7.90;;;;;;;;;;5057474;28;20594;-61
2021/11/27 00:31:30;;;;;;;9.90;8.80;;;;;;;;;;5058203;28;20286;-60
2021/11/27 00:33:57;;;;;;;11.23;8.40;;;;;;;;;;5057720;28;20607;-61
2021/11/27 00:36:23;;;;;;;11.03;8.17;;;;;;;;;;5058127;28;20232;-61
2021/11/27 00:38:49;;;;;;;12.13;8.10;;;;;;;;;;5057194;28;20471;-61
2021/11/27 00:41:15;;;;;;;9.20;8.30;;;;;;;;;;5057587;28;20766;-62
2021/11/27 00:43:41;;;;;;;10.80;8.20;;;;;;;;;;5057135;28;20228;-61
2021/11/27 00:46:06;;;;;;;12.53;8.77;;;;;;;;;;5057416;28;20529;-61
2021/11/27 00:48:34;;;;;;;9.33;8.33;;;;;;;;;;5056704;28;20483;-61
2021/11/27 00:51:05;;;;;;;10.70;7.63;;;;;;;;;;5056584;28;20241;-61
2021/11/27 00:53:31;;;;;;;9.60;7.97;;;;;;;;;;5057507;28;20522;-61
2021/11/27 00:55:56;;;;;;;10.57;7.87;;;;;;;;;;5057095;28;20509;-61
2021/11/27 00:58:22;;;;;;;8.93;8.03;;;;;;;;;;5057690;28;20285;-61
2021/11/27 01:00:56;;;;;;;13.30;10.50;;;;;;;;;;5056678;28;20225;-61
2021/11/27 01:03:23;;;;;;;12.50;8.77;;;;;;;;;;5057367;28;20232;-62
2021/11/27 01:05:49;;;;;;;11.00;8.70;;;;;;;;;;5057219;28;20487;-61
2021/11/27 01:08:15;;;;;;;10.00;7.43;;;;;;;;;;5056774;28;20443;-61
2021/11/27 01:10:52;;;;;;;9.50;8.07;;;;;;;;;;5057033;28;20598;-61
2021/11/27 01:13:17;;;;;;;9.07;8.13;;;;;;;;;;5057042;28;20858;-61
2021/11/27 01:15:43;;;;;;;8.87;7.97;;;;;;;;;;5057436;28;20452;-62
2021/11/27 01:18:09;;;;;;;11.17;9.00;;;;;;;;;;5056886;28;20281;-62
2021/11/27 01:20:56;;;;;;;15.47;12.10;;;;;;;;;;5057184;28;20254;-61
2021/11/27 01:23:22;;;;;;;15.87;10.87;;;;;;;;;;5056957;28;20448;-61
2021/11/27 01:25:48;;;;;;;15.60;11.53;;;;;;;;;;5057201;28;20946;-61
2021/11/27 01:28:17;;;;;;;22.00;15.20;;;;;;;;;;5056647;28;20460;-61
2021/11/27 01:30:44;;;;;;;22.23;17.70;;;;;;;;;;5056223;28;20221;-61
2021/11/27 01:33:10;;;;;;;13.53;11.53;;;;;;;;;;5056913;28;20471;-61
2021/11/27 01:35:36;;;;;;;12.80;10.07;;;;;;;;;;5057096;28;20532;-61
2021/11/27 01:38:02;;;;;;;12.43;9.90;;;;;;;;;;5056477;28;20262;-61
2021/11/27 01:40:27;;;;;;;14.50;10.60;;;;;;;;;;5057493;28;20466;-61
2021/11/27 01:42:53;;;;;;;17.43;11.00;;;;;;;;;;5056598;28;20538;-61
2021/11/27 01:45:20;;;;;;;19.20;13.13;;;;;;;;;;5056413;28;20225;-60
2021/11/27 01:47:52;;;;;;;22.67;14.67;;;;;;;;;;5057086;28;20470;-61
2021/11/27 01:50:18;;;;;;;21.20;15.50;;;;;;;;;;5056194;28;20483;-60
2021/11/27 01:52:44;;;;;;;23.80;17.30;;;;;;;;;;5056569;28;20470;-61
2021/11/27 01:55:10;;;;;;;21.23;16.03;;;;;;;;;;5056463;28;20779;-61
2021/11/27 01:57:36;;;;;;;15.90;13.53;;;;;;;;;;5056889;28;20611;-60
2021/11/27 02:00:05;;;;;;;23.00;14.60;;;;;;;;;;5056714;28;20538;-60
2021/11/27 02:02:30;;;;;;;15.80;14.13;;;;;;;;;;5056887;28;20537;-61
2021/11/27 02:04:56;;;;;;;24.80;17.37;;;;;;;;;;5056774;28;20460;-61
2021/11/27 02:07:22;;;;;;;25.60;20.50;;;;;;;;;;5057097;28;20221;-61
2021/11/27 02:09:47;;;;;;;36.87;26.73;;;;;;;;;;5056123;28;20224;-61
2021/11/27 02:12:13;;;;;;;51.83;35.30;;;;;;;;;;5055730;28;20542;-61
2021/11/27 02:14:39;;;;;;;72.03;48.00;;;;;;;;;;5055926;28;20340;-60
2021/11/27 02:17:05;;;;;;;59.57;43.07;;;;;;;;;;5056567;28;20284;-61
2021/11/27 02:19:31;;;;;;;87.80;61.07;;;;;;;;;;5055731;28;20663;-61
2021/11/27 02:21:56;;;;;;;77.13;55.90;;;;;;;;;;5056102;28;20761;-61
2021/11/27 02:24:23;;;;;;;66.83;49.40;;;;;;;;;;5056635;28;20461;-61
2021/11/27 02:26:49;;;;;;;23.30;18.97;;;;;;;;;;5056251;28;20236;-60
2021/11/27 02:29:18;;;;;;;15.77;12.33;;;;;;;;;;5056728;28;20460;-61
2021/11/27 02:31:43;;;;;;;11.50;9.80;;;;;;;;;;5057473;28;20489;-62
2021/11/27 02:34:09;;;;;;;10.20;8.40;;;;;;;;;;5060619;28;20817;-61
2021/11/27 02:36:36;;;;;;;9.90;8.70;;;;;;;;;;5060136;28;20219;-62
2021/11/27 02:39:04;;;;;;;10.97;8.80;;;;;;;;;;5060382;28;20946;-62
2021/11/27 02:41:30;;;;;;;10.13;8.80;;;;;;;;;;5060152;28;20466;-61
2021/11/27 02:43:55;;;;;;;11.47;9.60;;;;;;;;;;5060175;28;20444;-61
2021/11/27 02:46:21;;;;;;;10.70;9.20;;;;;;;;;;5060283;28;20273;-62
2021/11/27 02:48:46;;;;;;;11.20;8.47;;;;;;;;;;5059814;28;20304;-61
2021/11/27 02:51:11;;;;;;;9.37;7.57;;;;;;;;;;5060560;28;20228;-61
2021/11/27 02:53:37;;;;;;;10.47;8.30;;;;;;;;;;5059761;28;20214;-62
2021/11/27 02:56:03;;;;;;;12.93;10.40;;;;;;;;;;5060497;28;20356;-61
2021/11/27 02:58:29;;;;;;;16.50;13.10;;;;;;;;;;5060293;28;20237;-61
2021/11/27 03:00:57;;;;;;;17.47;12.80;;;;;;;;;;5059848;28;20466;-61
2021/11/27 03:03:24;;;;;;;15.23;11.80;;;;;;;;;;5060157;28;20258;-61
2021/11/27 03:05:49;;;;;;;13.03;10.73;;;;;;;;;;5059535;28;20464;-61
2021/11/27 03:08:16;;;;;;;15.80;9.83;;;;;;;;;;5059166;28;20479;-61
2021/11/27 03:10:42;;;;;;;17.90;12.07;;;;;;;;;;5058330;28;20243;-61
2021/11/27 03:13:07;;;;;;;14.40;10.80;;;;;;;;;;5060110;28;20469;-61
2021/11/27 03:15:37;;;;;;;20.03;11.60;;;;;;;;;;5059503;28;20236;-61
2021/11/27 03:18:03;;;;;;;22.13;12.97;;;;;;;;;;5059550;28;20271;-61
2021/11/27 03:20:28;;;;;;;14.63;11.13;;;;;;;;;;5060521;28;20467;-61
2021/11/27 03:22:53;;;;;;;16.70;12.40;;;;;;;;;;5058048;28;20318;-61
2021/11/27 03:25:19;;;;;;;13.63;9.70;;;;;;;;;;5059160;28;20230;-62
2021/11/27 03:27:44;;;;;;;14.37;9.33;;;;;;;;;;5059486;28;20724;-61
2021/11/27 03:30:17;;;;;;;16.23;11.87;;;;;;;;;;5059533;28;20234;-61
2021/11/27 03:32:42;;;;;;;16.23;10.73;;;;;;;;;;5059114;28;20517;-61
2021/11/27 03:35:09;;;;;;;16.90;11.30;;;;;;;;;;5059759;28;20601;-61
2021/11/27 03:37:34;;;;;;;10.37;8.97;;;;;;;;;;5060292;28;20229;-61
2021/11/27 03:40:00;;;;;;;13.00;9.97;;;;;;;;;;5059241;28;20450;-60
2021/11/27 03:42:26;;;;;;;15.00;9.90;;;;;;;;;;5059156;28;20236;-61
2021/11/27 03:44:51;;;;;;;12.33;8.60;;;;;;;;;;5059023;28;20456;-61
2021/11/27 03:47:17;;;;;;;14.53;9.93;;;;;;;;;;5059164;28;20262;-61
2021/11/27 03:49:43;;;;;;;13.10;9.10;;;;;;;;;;5058904;28;20232;-62
2021/11/27 03:52:08;;;;;;;13.87;9.40;;;;;;;;;;5058730;28;20843;-62
2021/11/27 03:54:34;;;;;;;10.30;8.00;;;;;;;;;;5059292;28;20283;-61
2021/11/27 03:56:59;;;;;;;13.47;9.90;;;;;;;;;;5058480;28;20250;-61
2021/11/27 03:59:26;;;;;;;12.23;9.23;;;;;;;;;;5058745;28;20221;-60
2021/11/27 04:01:52;;;;;;;17.73;9.67;;;;;;;;;;5057694;28;20222;-61
2021/11/27 04:04:18;;;;;;;16.87;9.43;;;;;;;;;;5058594;28;20949;-61
2021/11/27 04:06:43;;;;;;;10.23;8.23;;;;;;;;;;5059172;28;20277;-60
2021/11/27 04:09:11;;;;;;;12.13;8.73;;;;;;;;;;5058964;28;20214;-61
2021/11/27 04:11:38;;;;;;;12.07;7.67;;;;;;;;;;5059106;28;20277;-61
2021/11/27 04:14:04;;;;;;;14.17;9.17;;;;;;;;;;5058556;28;20518;-61
2021/11/27 04:16:31;;;;;;;9.83;8.83;;;;;;;;;;5057658;28;20453;-61
2021/11/27 04:18:56;;;;;;;12.00;8.43;;;;;;;;;;5058026;28;20837;-61
2021/11/27 04:21:21;;;;;;;10.70;7.53;;;;;;;;;;5058450;28;20523;-60
2021/11/27 04:23:48;;;;;;;11.80;8.97;;;;;;;;;;5058049;28;20317;-61
2021/11/27 04:26:14;;;;;;;12.90;9.83;;;;;;;;;;5058464;28;20215;-60
2021/11/27 04:28:40;;;;;;;13.10;10.27;;;;;;;;;;5058886;28;20454;-60
2021/11/27 04:31:05;;;;;;;14.17;9.40;;;;;;;;;;5058217;28;20447;-61
2021/11/27 04:33:31;;;;;;;10.57;8.30;;;;;;;;;;5058541;28;20223;-61
2021/11/27 04:35:56;;;;;;;13.00;9.30;;;;;;;;;;5058151;28;20626;-60
2021/11/27 04:38:22;;;;;;;12.83;8.47;;;;;;;;;;5058382;28;20262;-60
2021/11/27 04:40:48;;;;;;;13.57;9.13;;;;;;;;;;5057438;28;20254;-61
2021/11/27 04:43:14;;;;;;;13.37;7.97;;;;;;;;;;5058929;28;20464;-60
2021/11/27 04:45:40;;;;;;;17.90;8.70;;;;;;;;;;5058262;28;20458;-61
2021/11/27 04:48:06;;;;;;;12.43;8.93;;;;;;;;;;5057311;28;20513;-61
2021/11/27 04:50:32;;;;;;;11.73;8.83;;;;;;;;;;5057862;28;20490;-61
2021/11/27 04:53:00;;;;;;;9.30;7.70;;;;;;;;;;5057965;28;20455;-61
2021/11/27 04:55:25;;;;;;;10.07;7.23;;;;;;;;;;5057299;28;20455;-61
2021/11/27 04:57:51;;;;;;;14.60;9.77;;;;;;;;;;5057423;28;20985;-61
2021/11/27 05:00:42;;;;;;;15.20;9.70;;;;;;;;;;5058470;28;20232;-61
2021/11/27 05:03:08;;;;;;;10.93;8.17;;;;;;;;;;5057270;28;20245;-61
2021/11/27 05:05:33;;;;;;;13.03;9.47;;;;;;;;;;5057787;28;20521;-60
2021/11/27 05:07:59;;;;;;;12.50;11.10;;;;;;;;;;5057474;28;20274;-61
2021/11/27 05:10:26;;;;;;;12.17;9.10;;;;;;;;;;5057354;28;20708;-61
2021/11/27 05:12:51;;;;;;;15.53;9.67;;;;;;;;;;5055983;28;20217;-60
2021/11/27 05:15:17;;;;;;;12.63;8.50;;;;;;;;;;5057632;28;20531;-61
2021/11/27 05:17:42;;;;;;;12.33;10.17;;;;;;;;;;5057246;28;20215;-61
2021/11/27 05:20:09;;;;;;;12.10;8.10;;;;;;;;;;5056666;28;20215;-61
2021/11/27 05:22:34;;;;;;;14.97;8.73;;;;;;;;;;5056861;28;20237;-60
2021/11/27 05:25:01;;;;;;;10.93;8.00;;;;;;;;;;5055553;28;20781;-60
2021/11/27 05:27:26;;;;;;;10.63;8.20;;;;;;;;;;5057264;28;20231;-60
2021/11/27 05:29:52;;;;;;;12.60;8.83;;;;;;;;;;5057168;28;20458;-61
2021/11/27 05:32:24;;;;;;;11.63;8.37;;;;;;;;;;5057303;28;20646;-61
2021/11/27 05:34:50;;;;;;;11.07;8.80;;;;;;;;;;5057167;28;20540;-61
2021/11/27 05:37:16;;;;;;;16.80;7.77;;;;;;;;;;5057738;28;20451;-61
2021/11/27 05:39:42;;;;;;;14.03;7.23;;;;;;;;;;5056496;28;20211;-61
2021/11/27 05:42:09;;;;;;;13.00;9.37;;;;;;;;;;5057039;28;20455;-61
2021/11/27 05:44:36;;;;;;;12.07;8.97;;;;;;;;;;5057264;28;20521;-61
2021/11/27 05:47:01;;;;;;;10.80;8.60;;;;;;;;;;5057054;28;20456;-60
2021/11/27 05:49:27;;;;;;;12.93;9.60;;;;;;;;;;5057446;28;20450;-61
2021/11/27 05:51:52;;;;;;;11.17;9.13;;;;;;;;;;5056467;28;20239;-61
2021/11/27 05:54:17;;;;;;;14.80;9.30;;;;;;;;;;5057396;28;20219;-61
2021/11/27 05:56:43;;;;;;;12.20;9.57;;;;;;;;;;5056595;28;20224;-61
2021/11/27 05:59:08;;;;;;;12.73;9.10;;;;;;;;;;5055632;28;20258;-61
2021/11/27 06:01:33;;;;;;;12.23;9.07;;;;;;;;;;5056856;28;20220;-60
2021/11/27 06:03:59;;;;;;;13.13;9.93;;;;;;;;;;5057061;28;20267;-61
2021/11/27 06:06:24;;;;;;;13.53;9.77;;;;;;;;;;5058265;28;20236;-61
2021/11/27 06:08:49;;;;;;;11.90;9.50;;;;;;;;;;5060886;28;20219;-61
2021/11/27 06:11:15;;;;;;;11.07;9.23;;;;;;;;;;5061016;28;20239;-61
2021/11/27 06:13:40;;;;;;;12.40;9.23;;;;;;;;;;5060146;28;20218;-61
2021/11/27 06:16:07;;;;;;;11.23;8.40;;;;;;;;;;5060612;28;20350;-61
2021/11/27 06:18:36;;;;;;;13.33;9.20;;;;;;;;;;5061445;28;20574;-61
2021/11/27 06:21:02;;;;;;;11.30;9.53;;;;;;;;;;5060564;28;20461;-61
2021/11/27 06:23:28;;;;;;;12.50;9.23;;;;;;;;;;5061167;28;20461;-60
2021/11/27 06:25:57;;;;;;;13.60;9.27;;;;;;;;;;5060749;28;20471;-60
2021/11/27 06:28:23;;;;;;;13.73;9.90;;;;;;;;;;5061222;28;20247;-60
2021/11/27 06:30:49;;;;;;;16.90;10.40;;;;;;;;;;5060987;28;20798;-60
2021/11/27 06:33:14;;;;;;;11.90;10.00;;;;;;;;;;5061031;28;20462;-60
2021/11/27 06:35:40;;;;;;;12.80;10.07;;;;;;;;;;5060770;28;20222;-61
2021/11/27 06:38:05;;;;;;;12.10;9.33;;;;;;;;;;5059606;28;20597;-61
2021/11/27 06:40:31;;;;;;;13.70;11.23;;;;;;;;;;5059717;28;20305;-60
2021/11/27 06:43:00;;;;;;;11.83;10.03;;;;;;;;;;5059336;28;20601;-60
2021/11/27 06:45:25;;;;;;;16.80;10.57;;;;;;;;;;5060771;28;20647;-60
2021/11/27 06:47:51;;;;;;;17.00;11.13;;;;;;;;;;5060959;28;20490;-60
2021/11/27 06:50:17;;;;;;;13.27;10.23;;;;;;;;;;5059716;28;20648;-60
2021/11/27 06:52:43;;;;;;;17.03;10.80;;;;;;;;;;5060546;28;20608;-62
2021/11/27 06:55:08;;;;;;;13.83;11.00;;;;;;;;;;5060263;28;20466;-61
2021/11/27 06:57:34;;;;;;;14.20;10.40;;;;;;;;;;5060646;28;20478;-60
2021/11/27 07:00:00;;;;;;;12.90;10.00;;;;;;;;;;5059651;28;20219;-61
2021/11/27 07:02:25;;;;;;;14.70;11.17;;;;;;;;;;5059696;28;20494;-60
2021/11/27 07:04:50;;;;;;;18.40;11.43;;;;;;;;;;5060403;28;20226;-61
2021/11/27 07:07:16;;;;;;;16.27;11.53;;;;;;;;;;5057776;28;20696;-62
2021/11/27 07:09:41;;;;;;;15.73;12.17;;;;;;;;;;5058398;28;20533;-62
2021/11/27 07:12:07;;;;;;;18.90;12.03;;;;;;;;;;5057363;28;20678;-62
2021/11/27 07:14:32;;;;;;;17.13;12.30;;;;;;;;;;5058101;28;20245;-63
2021/11/27 07:16:57;;;;;;;14.90;11.10;;;;;;;;;;5057095;28;20219;-62
2021/11/27 07:19:23;;;;;;;15.23;11.80;;;;;;;;;;5057404;28;20646;-62
2021/11/27 07:21:48;;;;;;;16.73;11.47;;;;;;;;;;5057198;28;20606;-62
2021/11/27 07:24:13;;;;;;;18.87;13.37;;;;;;;;;;5056903;28;20230;-62
2021/11/27 07:26:39;;;;;;;17.23;12.63;;;;;;;;;;5056286;28;20248;-63
2021/11/27 07:29:05;;;;;;;16.60;12.47;;;;;;;;;;5035362;28;20216;-62
2021/11/27 07:31:30;;;;;;;16.63;12.67;;;;;;;;;;5037744;28;20224;-64
2021/11/27 07:33:56;;;;;;;16.33;12.03;;;;;;;;;;5044511;28;20462;-62
2021/11/27 07:36:21;;;;;;;17.20;11.77;;;;;;;;;;5043241;28;20284;-62
2021/11/27 07:38:46;;;;;;;17.57;12.77;;;;;;;;;;5043704;28;20216;-62
2021/11/27 07:41:12;;;;;;;18.30;12.07;;;;;;;;;;5050238;28;20287;-62
2021/11/27 07:43:37;;;;;;;19.93;12.47;;;;;;;;;;5049907;28;20291;-62
2021/11/27 07:46:03;;;;;;;18.60;13.97;;;;;;;;;;5033089;28;20346;-61
2021/11/27 07:48:31;;;;;;;16.20;13.80;;;;;;;;;;5043854;28;20231;-62
2021/11/27 07:51:00;;;;;;;19.57;12.27;;;;;;;;;;5049445;28;20549;-60
2021/11/27 07:53:26;;;;;;;20.10;13.43;;;;;;;;;;5050608;28;20781;-62
2021/11/27 07:55:51;;;;;;;17.80;12.33;;;;;;;;;;5044570;28;20541;-62
2021/11/27 07:58:16;;;;;;;14.87;12.03;;;;;;;;;;5043115;28;20292;-62
2021/11/27 08:00:42;;;;;;;16.10;12.47;;;;;;;;;;5049576;28;20219;-62
2021/11/27 08:03:07;;;;;;;16.77;12.77;;;;;;;;;;5045993;28;20250;-62
2021/11/27 08:05:32;;;;;;;20.17;14.13;;;;;;;;;;5044251;28;20218;-62
2021/11/27 08:07:58;;;;;;;16.60;12.47;;;;;;;;;;5043010;28;20664;-62
2021/11/27 08:10:23;;;;;;;20.67;13.63;;;;;;;;;;5050206;28;20225;-62
2021/11/27 08:12:48;;;;;;;19.80;12.03;;;;;;;;;;5050368;28;20255;-62
2021/11/27 08:15:14;;;;;;;16.27;12.60;;;;;;;;;;5043201;28;20225;-62
2021/11/27 08:17:40;;;;;;;18.03;12.83;;;;;;;;;;5043554;28;20220;-62
2021/11/27 08:20:06;;;;;;;19.20;13.80;;;;;;;;;;5049562;28;20669;-62
2021/11/27 08:22:32;;;;;;;18.73;13.27;;;;;;;;;;5050638;28;20221;-62
2021/11/27 08:24:58;;;;;;;17.13;13.83;;;;;;;;;;5042833;28;20569;-62
2021/11/27 08:27:27;;;;;;;18.90;13.50;;;;;;;;;;5042439;28;20305;-62
2021/11/27 08:29:53;;;;;;;18.30;12.97;;;;;;;;;;5024902;28;20220;-63
2021/11/27 08:32:18;;;;;;;19.33;14.30;;;;;;;;;;5044398;28;20468;-62
2021/11/27 08:34:43;;;;;;;18.53;12.70;;;;;;;;;;5049553;28;20228;-63
2021/11/27 08:37:09;;;;;;;19.43;13.93;;;;;;;;;;5041333;28;20260;-62
2021/11/27 08:39:34;;;;;;;17.50;14.60;;;;;;;;;;5048943;28;20278;-63
2021/11/27 08:41:59;;;;;;;17.20;13.20;;;;;;;;;;5046780;28;20220;-62
2021/11/27 08:44:25;;;;;;;21.93;14.23;;;;;;;;;;5042274;28;20302;-62
2021/11/27 08:46:50;;;;;;;18.30;12.80;;;;;;;;;;5044758;28;20300;-62
2021/11/27 08:49:15;;;;;;;18.00;13.60;;;;;;;;;;5047807;28;20229;-62
2021/11/27 08:51:42;;;;;;;17.17;13.43;;;;;;;;;;5046011;28;20271;-61
2021/11/27 08:54:09;;;;;;;17.83;13.60;;;;;;;;;;5041893;28;20307;-61
2021/11/27 08:56:35;;;;;;;18.53;13.73;;;;;;;;;;5045596;28;20444;-62
2021/11/27 08:59:00;;;;;;;17.40;13.33;;;;;;;;;;5048234;28;20467;-62
2021/11/27 09:01:26;;;;;;;18.50;12.80;;;;;;;;;;5045591;28;20224;-62
2021/11/27 09:03:52;;;;;;;19.77;14.23;;;;;;;;;;5051296;28;20664;-62
2021/11/27 09:06:17;;;;;;;18.67;14.67;;;;;;;;;;5045118;28;20547;-61
2021/11/27 09:08:43;;;;;;;18.43;12.23;;;;;;;;;;5042097;28;20232;-62
2021/11/27 09:11:12;;;;;;;17.33;12.60;;;;;;;;;;5044561;28;20222;-62
2021/11/27 09:13:37;;;;;;;16.13;12.70;;;;;;;;;;5048843;28;20471;-61
2021/11/27 09:16:04;;;;;;;16.77;13.50;;;;;;;;;;5045242;28;20460;-63
2021/11/27 09:18:31;;;;;;;18.00;13.73;;;;;;;;;;5041600;28;20301;-62
2021/11/27 09:20:56;;;;;;;18.83;13.80;;;;;;;;;;5045511;28;20473;-62
2021/11/27 09:23:22;;;;;;;17.43;13.80;;;;;;;;;;5048293;28;20835;-62
2021/11/27 09:25:48;;;;;;;27.10;14.60;;;;;;;;;;5045323;28;20229;-62
2021/11/27 09:28:13;;;;;;;17.80;13.93;;;;;;;;;;5033603;28;20706;-62
2021/11/27 09:30:38;;;;;;;23.67;15.17;;;;;;;;;;5034665;28;20661;-63
2021/11/27 09:33:04;;;;;;;16.13;13.47;;;;;;;;;;5041522;28;20218;-62
2021/11/27 09:35:29;;;;;;;19.37;14.50;;;;;;;;;;5048332;28;20224;-62
2021/11/27 09:37:54;;;;;;;17.57;13.00;;;;;;;;;;5041417;28;20219;-62
2021/11/27 09:40:20;;;;;;;17.13;13.10;;;;;;;;;;5044399;28;20236;-63
2021/11/27 09:42:50;;;;;;;19.53;14.83;;;;;;;;;;5048362;28;20644;-62
2021/11/27 09:45:16;;;;;;;17.63;13.60;;;;;;;;;;5043867;28;20441;-62
2021/11/27 09:47:44;;;;;;;17.90;13.40;;;;;;;;;;5041507;28;20457;-61
2021/11/27 09:50:10;;;;;;;15.50;13.57;;;;;;;;;;5043766;28;20230;-62
2021/11/27 09:52:36;;;;;;;17.60;13.47;;;;;;;;;;5047986;28;20423;-62
2021/11/27 09:55:02;;;;;;;24.10;15.00;;;;;;;;;;5045332;28;20228;-62
2021/11/27 09:57:28;;;;;;;20.37;13.47;;;;;;;;;;5041158;28;20217;-62
2021/11/27 09:59:53;;;;;;;17.37;12.33;;;;;;;;;;5042739;28;20687;-62
2021/11/27 10:02:21;;;;;;;18.73;13.87;;;;;;;;;;5047922;28;20573;-62
2021/11/27 10:04:51;;;;;;;17.30;14.10;;;;;;;;;;5044912;28;20219;-63
2021/11/27 10:07:18;;;;;;;15.67;12.90;;;;;;;;;;5039660;28;20780;-62
2021/11/27 10:09:47;;;;;;;19.07;13.67;;;;;;;;;;5044210;28;20458;-61
2021/11/27 10:12:13;;;;;;;18.37;14.20;;;;;;;;;;5047739;28;20455;-61
2021/11/27 10:14:40;;;;;;;19.20;13.93;;;;;;;;;;5045698;28;20577;-63
2021/11/27 10:17:09;;;;;;;17.20;13.20;;;;;;;;;;5040752;28;20541;-62
2021/11/27 10:19:46;;;;;;;17.97;13.17;;;;;;;;;;5043563;28;20508;-62
2021/11/27 10:22:15;;;;;;;19.83;14.30;;;;;;;;;;5047485;28;20474;-62
2021/11/27 10:24:41;;;;;;;18.93;13.87;;;;;;;;;;5047787;28;20533;-62
2021/11/27 10:27:26;;;;;;;18.67;12.80;;;;;;;;;;5040428;28;20535;-62
2021/11/27 10:30:06;;;;;;;18.00;13.23;;;;;;;;;;5027948;28;20459;-63
2021/11/27 10:32:40;;;;;;;20.00;15.27;;;;;;;;;;5041502;28;20455;-62
2021/11/27 10:35:09;;;;;;;19.27;13.73;;;;;;;;;;5027698;28;20460;-62
2021/11/27 10:37:37;;;;;;;18.00;13.73;;;;;;;;;;5047049;28;20423;-62
2021/11/27 10:40:13;;;;;;;14.87;11.67;;;;;;;;;;5041390;28;20827;-62
2021/11/27 10:42:43;;;;;;;16.27;13.33;;;;;;;;;;5040022;28;20445;-62
2021/11/27 10:45:19;;;;;;;15.83;13.10;;;;;;;;;;5044804;28;20446;-63
2021/11/27 10:47:46;;;;;;;18.63;13.63;;;;;;;;;;5047292;28;20470;-62
2021/11/27 10:50:18;;;;;;;16.43;13.57;;;;;;;;;;5044352;28;20444;-62
2021/11/27 10:52:44;;;;;;;17.70;13.40;;;;;;;;;;5041725;28;20468;-63
2021/11/27 10:55:16;;;;;;;15.03;12.67;;;;;;;;;;5046064;28;20462;-63
2021/11/27 10:57:42;;;;;;;20.30;14.00;;;;;;;;;;5050698;28;20447;-62
2021/11/27 11:00:47;;;;;;;17.53;12.73;;;;;;;;;;5050141;28;20450;-63
2021/11/27 11:03:33;;;;;;;15.57;14.00;;;;;;;;;;5026381;28;20253;-62
2021/11/27 11:06:17;;;;;;;17.77;13.77;;;;;;;;;;5016402;28;20848;-62
2021/11/27 11:08:42;;;;;;;14.27;12.27;;;;;;;;;;5021902;28;20458;-62
2021/11/27 11:11:20;;;;;;;18.87;13.67;;;;;;;;;;5047633;28;20476;-62
2021/11/27 11:13:52;;;;;;;24.23;15.10;;;;;;;;;;5049807;28;20336;-62
2021/11/27 11:16:18;;;;;;;16.57;12.87;;;;;;;;;;5048173;28;20904;-63
2021/11/27 11:18:44;;;;;;;20.90;13.57;;;;;;;;;;5043599;28;20541;-62
2021/11/27 11:21:09;;;;;;;16.50;12.67;;;;;;;;;;5046407;28;20463;-62
2021/11/27 11:23:39;;;;;;;15.67;11.80;;;;;;;;;;5049549;28;20529;-61
2021/11/27 11:26:13;;;;;;;15.37;12.60;;;;;;;;;;5048184;28;20225;-62
2021/11/27 11:28:49;;;;;;;20.17;15.00;;;;;;;;;;5030613;28;20428;-62
2021/11/27 11:31:21;;;;;;;17.37;13.23;;;;;;;;;;5045434;28;20417;-63
2021/11/27 11:33:51;;;;;;;17.63;12.87;;;;;;;;;;5046099;28;20465;-62
2021/11/27 11:36:18;;;;;;;16.60;12.97;;;;;;;;;;5042776;28;20433;-62
2021/11/27 11:38:46;;;;;;;20.77;14.50;;;;;;;;;;5046887;28;20440;-63
2021/11/27 11:41:13;;;;;;;14.23;12.00;;;;;;;;;;5049551;28;20550;-62
2021/11/27 11:43:38;;;;;;;17.33;12.50;;;;;;;;;;5047144;28;20473;-62
2021/11/27 11:46:06;;;;;;;22.10;14.30;;;;;;;;;;5042558;28;20799;-63
2021/11/27 11:48:32;;;;;;;21.50;14.73;;;;;;;;;;5046304;28;20218;-62
2021/11/27 11:51:09;;;;;;;18.40;13.50;;;;;;;;;;5048209;28;20466;-62
2021/11/27 11:53:39;;;;;;;13.37;11.53;;;;;;;;;;5031437;28;20257;-63
2021/11/27 11:56:07;;;;;;;17.37;13.37;;;;;;;;;;5042009;28;20770;-62
2021/11/27 11:58:41;;;;;;;16.23;13.00;;;;;;;;;;5043944;28;20456;-63
2021/11/27 12:01:29;;;;;;;19.10;11.33;;;;;;;;;;5030264;28;20443;-62
2021/11/27 12:03:55;;;;;;;15.77;12.43;;;;;;;;;;5042705;28;20594;-63
2021/11/27 12:06:20;;;;;;;16.33;12.03;;;;;;;;;;5046326;28;20464;-63
2021/11/27 12:08:48;;;;;;;18.20;13.20;;;;;;;;;;5050113;28;20226;-62
2021/11/27 12:11:39;;;;;;;18.50;13.60;;;;;;;;;;5046088;28;20260;-63
2021/11/27 12:14:24;;;;;;;22.00;15.83;;;;;;;;;;5030423;28;20792;-62
2021/11/27 12:17:14;;;;;;;21.43;15.20;;;;;;;;;;5042952;28;20527;-62
2021/11/27 12:20:03;;;;;;;17.73;14.03;;;;;;;;;;5042913;28;20440;-62
2021/11/27 12:22:33;;;;;;;20.63;13.70;;;;;;;;;;5029162;28;20439;-63
2021/11/27 12:25:20;;;;;;;19.97;14.60;;;;;;;;;;5042449;28;20458;-63
2021/11/27 12:28:02;;;;;;;19.17;15.07;;;;;;;;;;5045202;28;20430;-62
2021/11/27 12:30:29;;;;;;;19.13;14.67;;;;;;;;;;5033766;28;20477;-62
2021/11/27 12:32:55;;;;;;;17.10;13.67;;;;;;;;;;5042085;28;20550;-62
2021/11/27 12:35:27;;;;;;;18.70;12.53;;;;;;;;;;5046845;28;20470;-63
2021/11/27 12:37:53;;;;;;;18.50;13.90;;;;;;;;;;5048797;28;20466;-63
2021/11/27 12:40:35;;;;;;;20.53;13.90;;;;;;;;;;5045435;28;20519;-63
2021/11/27 12:43:12;;;;;;;15.97;13.73;;;;;;;;;;5041686;28;20478;-62
2021/11/27 12:45:40;;;;;;;18.40;13.80;;;;;;;;;;5042526;28;20428;-61
2021/11/27 12:48:38;;;;;;;20.10;16.27;;;;;;;;;;5048805;28;20830;-63
2021/11/27 12:51:16;;;;;;;20.53;14.87;;;;;;;;;;5010812;28;20440;-62
2021/11/27 12:54:00;;;;;;;22.67;15.73;;;;;;;;;;5043510;28;20450;-62
2021/11/27 12:56:30;;;;;;;17.87;14.07;;;;;;;;;;5029825;28;20509;-62
2021/11/27 12:59:00;;;;;;;19.10;14.60;;;;;;;;;;5041582;28;20448;-62
2021/11/27 13:01:27;;;;;;;17.03;14.07;;;;;;;;;;5047257;28;20801;-63
2021/11/27 13:03:53;;;;;;;19.60;14.97;;;;;;;;;;5048283;28;20469;-62
2021/11/27 13:06:19;;;;;;;19.17;15.30;;;;;;;;;;5043283;28;20447;-61
2021/11/27 13:08:44;;;;;;;20.47;14.83;;;;;;;;;;5041766;28;20516;-62
2021/11/27 13:11:10;;;;;;;17.40;14.50;;;;;;;;;;5048330;28;20292;-61
2021/11/27 13:13:38;;;;;;;20.50;15.50;;;;;;;;;;5050208;28;20662;-61
2021/11/27 13:16:12;;;;;;;21.90;13.90;;;;;;;;;;5043855;28;20913;-60
2021/11/27 13:18:48;;;;;;;19.83;14.90;;;;;;;;;;5043296;28;20519;-61
2021/11/27 13:21:13;;;;;;;19.33;14.30;;;;;;;;;;5046449;28;20430;-60
2021/11/27 13:23:42;;;;;;;20.97;14.97;;;;;;;;;;5049948;28;20463;-60
2021/11/27 13:26:10;;;;;;;21.57;15.83;;;;;;;;;;5047744;28;20217;-61
2021/11/27 13:28:38;;;;;;;17.77;14.47;;;;;;;;;;5032644;28;20472;-60
2021/11/27 13:31:07;;;;;;;16.80;14.57;;;;;;;;;;5043330;28;20438;-60
2021/11/27 13:33:54;;;;;;;23.57;16.43;;;;;;;;;;5044360;28;20522;-60
2021/11/27 13:36:42;;;;;;;18.40;15.33;;;;;;;;;;5043240;28;20529;-60
2021/11/27 13:39:24;;;;;;;19.43;15.27;;;;;;;;;;5042492;28;20769;-60
2021/11/27 13:42:04;;;;;;;19.67;14.37;;;;;;;;;;5034931;28;20433;-61
2021/11/27 13:44:38;;;;;;;22.33;14.83;;;;;;;;;;5043211;28;20426;-60
2021/11/27 13:47:06;;;;;;;22.97;16.33;;;;;;;;;;5044532;28;20470;-62
2021/11/27 13:49:37;;;;;;;20.77;15.40;;;;;;;;;;5049092;28;20424;-61
2021/11/27 13:52:06;;;;;;;21.00;17.07;;;;;;;;;;5050067;28;20439;-60
2021/11/27 13:54:33;;;;;;;19.53;14.73;;;;;;;;;;5030355;28;20981;-61
2021/11/27 13:56:59;;;;;;;20.37;14.60;;;;;;;;;;5042678;28;20470;-61
2021/11/27 13:59:30;;;;;;;18.47;15.10;;;;;;;;;;5030275;28;20464;-60
2021/11/27 14:02:04;;;;;;;19.83;15.90;;;;;;;;;;5042915;28;20493;-60
2021/11/27 14:04:29;;;;;;;19.03;15.63;;;;;;;;;;5047322;28;20453;-60
2021/11/27 14:07:00;;;;;;;19.10;16.13;;;;;;;;;;5049187;28;20513;-61
2021/11/27 14:10:01;;;;;;;19.00;15.57;;;;;;;;;;5044983;28;20217;-60
2021/11/27 14:12:35;;;;;;;21.73;17.60;;;;;;;;;;5014650;28;20472;-61
2021/11/27 14:15:11;;;;;;;17.20;14.93;;;;;;;;;;5044301;28;20531;-60
2021/11/27 14:17:37;;;;;;;21.90;15.27;;;;;;;;;;5045807;28;20451;-61
2021/11/27 14:20:18;;;;;;;17.63;15.20;;;;;;;;;;5041439;28;20552;-61
2021/11/27 14:22:51;;;;;;;20.37;15.00;;;;;;;;;;5043857;28;20455;-60
2021/11/27 14:25:17;;;;;;;22.87;15.57;;;;;;;;;;5049750;28;20469;-60
2021/11/27 14:27:58;;;;;;;24.83;17.00;;;;;;;;;;5050569;28;20468;-60